createdAt,value
2022-07-30T00:00:40.570Z,21.86
2022-07-30T00:03:09.030Z,21.74
2022-07-30T00:05:37.384Z,21.80
2022-07-30T00:08:05.953Z,21.93
2022-07-30T00:10:34.341Z,21.55
2022-07-30T00:13:02.711Z,22.05
2022-07-30T00:15:31.242Z,21.68
2022-07-30T00:18:01.002Z,21.60
2022-07-30T00:20:29.658Z,21.45
2022-07-30T00:22:58.320Z,22.07
2022-07-30T00:25:26.884Z,21.67
2022-07-30T00:27:55.270Z,21.96
2022-07-30T00:30:23.871Z,22.04
2022-07-30T00:32:52.500Z,21.90
2022-07-30T00:35:22.364Z,21.70
2022-07-30T00:37:50.809Z,21.95
2022-07-30T00:40:19.300Z,21.75
2022-07-30T00:42:48.904Z,21.54
2022-07-30T00:45:18.513Z,21.70
2022-07-30T00:47:47.120Z,21.97
2022-07-30T00:50:16.034Z,21.75
2022-07-30T00:52:47.557Z,21.92
2022-07-30T00:55:16.678Z,21.87
2022-07-30T00:57:45.657Z,21.92
2022-07-30T01:00:17.046Z,22.14
2022-07-30T01:02:45.697Z,22.15
2022-07-30T01:05:14.286Z,21.94
2022-07-30T01:07:42.994Z,21.97
2022-07-30T01:10:16.160Z,22.09
2022-07-30T01:12:45.271Z,22.10
2022-07-30T01:15:14.081Z,22.01
2022-07-30T01:17:42.557Z,21.72
2022-07-30T01:20:14.621Z,21.92
2022-07-30T01:22:52.631Z,21.84
2022-07-30T01:25:29.730Z,21.87
2022-07-30T01:28:01.304Z,21.42
2022-07-30T01:30:32.658Z,21.67
2022-07-30T01:33:04.530Z,21.43
2022-07-30T01:35:34.653Z,21.53
2022-07-30T01:38:05.776Z,21.07
2022-07-30T01:40:34.545Z,21.33
2022-07-30T01:43:04.528Z,21.35
2022-07-30T01:45:41.391Z,21.25
2022-07-30T01:48:14.136Z,21.37
2022-07-30T01:50:45.498Z,21.45
2022-07-30T01:53:16.225Z,21.64
2022-07-30T01:55:45.313Z,21.47
2022-07-30T01:58:15.540Z,21.41
2022-07-30T02:00:45.026Z,21.26
2022-07-30T02:03:13.686Z,21.13
2022-07-30T02:05:43.035Z,21.52
2022-07-30T02:08:14.365Z,21.76
2022-07-30T02:10:45.391Z,21.47
2022-07-30T02:13:17.988Z,21.16
2022-07-30T02:15:51.196Z,21.47
2022-07-30T02:18:24.705Z,21.49
2022-07-30T02:20:57.988Z,21.44
2022-07-30T02:23:28.241Z,21.30
2022-07-30T02:25:58.299Z,21.20
2022-07-30T02:28:29.179Z,21.28
2022-07-30T02:31:01.558Z,21.21
2022-07-30T02:33:41.227Z,21.17
2022-07-30T02:36:17.922Z,21.41
2022-07-30T02:38:47.999Z,21.07
2022-07-30T02:41:16.832Z,21.24
2022-07-30T02:43:47.300Z,21.18
2022-07-30T02:46:15.549Z,21.25
2022-07-30T02:48:44.409Z,21.01
2022-07-30T02:51:13.969Z,20.85
2022-07-30T02:53:44.572Z,20.56
2022-07-30T02:56:15.973Z,20.68
2022-07-30T02:58:46.968Z,21.11
2022-07-30T03:01:17.133Z,20.89
2022-07-30T03:03:46.582Z,20.93
2022-07-30T03:06:16.163Z,20.48
2022-07-30T03:08:45.331Z,20.88
2022-07-30T03:11:14.645Z,20.88
2022-07-30T03:16:13.488Z,21.31
2022-07-30T03:18:43.154Z,20.93
2022-07-30T03:21:12.156Z,21.10
2022-07-30T03:23:41.396Z,20.66
2022-07-30T03:26:10.312Z,21.20
2022-07-30T03:28:40.361Z,20.97
2022-07-30T03:31:10.650Z,20.77
2022-07-30T03:33:42.099Z,20.90
2022-07-30T03:36:11.638Z,20.69
2022-07-30T03:38:41.243Z,20.36
2022-07-30T03:41:09.790Z,20.52
2022-07-30T03:43:39.999Z,20.44
2022-07-30T03:46:08.876Z,20.68
2022-07-30T03:48:37.967Z,20.74
2022-07-30T03:51:10.149Z,20.59
2022-07-30T03:53:39.206Z,20.82
2022-07-30T03:56:08.327Z,20.23
2022-07-30T03:58:38.583Z,20.42
2022-07-30T04:01:07.095Z,20.50
2022-07-30T04:03:35.652Z,20.44
2022-07-30T04:06:04.192Z,20.76
2022-07-30T04:08:34.077Z,20.29
2022-07-30T04:11:02.501Z,20.33
2022-07-30T04:13:30.901Z,20.09
2022-07-30T04:16:38.199Z,19.98
2022-07-30T04:18:52.992Z,20.02
2022-07-30T04:21:22.387Z,20.00
2022-07-30T04:24:02.931Z,19.64
2022-07-30T04:26:35.501Z,20.28
2022-07-30T04:29:06.100Z,19.99
2022-07-30T04:31:39.907Z,20.15
2022-07-30T04:34:09.846Z,20.45
2022-07-30T04:36:38.242Z,20.07
2022-07-30T04:39:08.350Z,20.01
2022-07-30T04:41:49.545Z,20.31
2022-07-30T04:44:19.537Z,20.82
2022-07-30T04:46:48.075Z,20.41
2022-07-30T04:49:17.536Z,20.81
2022-07-30T04:51:46.456Z,21.08
2022-07-30T04:54:17.292Z,21.18
2022-07-30T04:56:52.484Z,21.48
2022-07-30T04:59:25.802Z,21.78
2022-07-30T05:01:55.233Z,22.09
2022-07-30T05:04:24.127Z,22.32
2022-07-30T05:06:53.133Z,22.65
2022-07-30T05:09:24.072Z,23.36
2022-07-30T05:11:52.794Z,22.98
2022-07-30T05:14:21.216Z,23.23
2022-07-30T05:16:49.783Z,23.36
2022-07-30T05:19:18.888Z,23.62
2022-07-30T05:21:47.339Z,24.22
2022-07-30T05:24:16.033Z,24.10
2022-07-30T05:26:46.016Z,23.85
2022-07-30T05:29:19.919Z,23.77
2022-07-30T05:31:49.113Z,22.59
2022-07-30T05:34:17.877Z,23.21
2022-07-30T05:36:46.324Z,22.37
2022-07-30T05:39:16.353Z,22.18
2022-07-30T05:41:46.161Z,22.63
2022-07-30T05:44:14.495Z,21.92
2022-07-30T05:46:42.991Z,22.24
2022-07-30T05:49:11.602Z,21.74
2022-07-30T05:51:40.283Z,22.26
2022-07-30T05:54:09.934Z,22.04
2022-07-30T05:56:38.300Z,21.98
2022-07-30T05:59:08.454Z,21.50
2022-07-30T06:01:36.843Z,22.49
2022-07-30T06:04:05.515Z,22.30
2022-07-30T06:06:33.927Z,22.50
2022-07-30T06:09:02.330Z,23.33
2022-07-30T06:11:30.702Z,23.17
2022-07-30T06:13:59.028Z,23.38
2022-07-30T06:16:28.856Z,22.29
2022-07-30T06:18:57.247Z,22.70
2022-07-30T06:21:25.595Z,22.81
2022-07-30T06:23:53.920Z,22.39
2022-07-30T06:26:22.514Z,22.78
2022-07-30T06:28:50.828Z,23.06
2022-07-30T06:31:19.395Z,22.65
2022-07-30T06:33:49.130Z,22.56
2022-07-30T06:36:17.575Z,22.15
2022-07-30T06:38:45.926Z,22.40
2022-07-30T06:41:15.815Z,22.49
2022-07-30T06:43:44.271Z,22.32
2022-07-30T06:46:12.734Z,21.96
2022-07-30T06:48:42.367Z,22.43
2022-07-30T06:51:12.166Z,22.73
2022-07-30T06:53:42.642Z,23.04
2022-07-30T06:56:11.481Z,23.37
2022-07-30T06:58:40.317Z,22.91
2022-07-30T07:01:11.365Z,23.19
2022-07-30T07:03:40.816Z,23.86
2022-07-30T07:06:09.436Z,24.35
2022-07-30T07:08:39.699Z,24.05
2022-07-30T07:11:08.175Z,24.39
2022-07-30T07:13:36.734Z,23.93
2022-07-30T07:16:05.588Z,24.09
2022-07-30T07:18:33.950Z,24.06
2022-07-30T07:21:02.324Z,24.43
2022-07-30T07:23:39.768Z,24.59
2022-07-30T07:26:12.755Z,24.14
2022-07-30T07:28:41.374Z,23.79
2022-07-30T07:31:10.425Z,24.42
2022-07-30T07:33:40.535Z,24.10
2022-07-30T07:36:09.026Z,24.36
2022-07-30T07:38:37.959Z,24.57
2022-07-30T07:41:06.560Z,24.43
2022-07-30T07:43:36.266Z,24.57
2022-07-30T07:46:04.857Z,24.63
2022-07-30T07:48:33.334Z,24.11
2022-07-30T07:51:01.811Z,24.70
2022-07-30T07:53:30.195Z,24.02
2022-07-30T07:55:58.805Z,24.93
2022-07-30T07:58:27.444Z,25.13
2022-07-30T08:00:57.203Z,25.15
2022-07-30T08:03:25.592Z,25.39
2022-07-30T08:06:04.687Z,25.39
2022-07-30T08:08:36.646Z,25.79
2022-07-30T08:11:05.686Z,25.15
2022-07-30T08:13:49.271Z,25.16
2022-07-30T08:16:22.783Z,26.39
2022-07-30T08:18:51.283Z,25.26
2022-07-30T08:21:19.666Z,26.28
2022-07-30T08:23:48.063Z,26.56
2022-07-30T08:26:16.448Z,26.25
2022-07-30T08:28:45.714Z,25.80
2022-07-30T08:31:14.444Z,26.20
2022-07-30T08:33:44.170Z,25.90
2022-07-30T08:36:12.569Z,25.82
2022-07-30T08:38:40.993Z,26.28
2022-07-30T08:41:09.449Z,25.70
2022-07-30T08:43:38.280Z,26.08
2022-07-30T08:46:10.937Z,25.96
2022-07-30T08:48:39.650Z,26.57
2022-07-30T08:51:09.594Z,25.92
2022-07-30T08:53:38.112Z,25.78
2022-07-30T08:56:08.993Z,26.58
2022-07-30T08:58:37.391Z,26.19
2022-07-30T09:01:07.019Z,26.10
2022-07-30T09:03:35.771Z,26.87
2022-07-30T09:06:13.960Z,26.79
2022-07-30T09:08:42.447Z,26.62
2022-07-30T09:11:10.974Z,26.72
2022-07-30T09:13:41.786Z,26.51
2022-07-30T09:16:20.731Z,27.05
2022-07-30T09:18:49.755Z,26.58
2022-07-30T09:21:23.283Z,26.90
2022-07-30T09:23:59.130Z,26.52
2022-07-30T09:26:27.862Z,26.35
2022-07-30T09:28:56.662Z,25.95
2022-07-30T09:31:25.144Z,26.40
2022-07-30T09:33:53.577Z,27.69
2022-07-30T09:36:23.296Z,27.85
2022-07-30T09:38:53.159Z,27.45
2022-07-30T09:41:39.108Z,28.11
2022-07-30T09:44:08.386Z,28.06
2022-07-30T09:46:45.089Z,27.24
2022-07-30T09:49:17.444Z,26.73
2022-07-30T09:51:54.375Z,27.76
2022-07-30T09:54:26.825Z,26.78
2022-07-30T09:57:25.690Z,28.47
2022-07-30T09:59:57.586Z,27.69
2022-07-30T10:02:32.816Z,27.83
2022-07-30T10:05:20.379Z,28.04
2022-07-30T10:07:52.454Z,27.28
2022-07-30T10:10:25.505Z,27.86
2022-07-30T10:12:56.366Z,27.37
2022-07-30T10:15:26.627Z,27.01
2022-07-30T10:17:56.533Z,28.42
2022-07-30T10:20:26.458Z,27.01
2022-07-30T10:22:56.693Z,28.19
2022-07-30T10:25:28.138Z,28.19
2022-07-30T10:27:57.873Z,28.34
2022-07-30T10:30:28.021Z,28.80
2022-07-30T10:33:00.014Z,28.67
2022-07-30T10:35:34.535Z,28.24
2022-07-30T10:38:13.905Z,28.27
2022-07-30T10:40:49.228Z,28.77
2022-07-30T10:43:52.826Z,28.32
2022-07-30T10:46:33.514Z,28.71
2022-07-30T10:49:17.461Z,28.22
2022-07-30T10:51:48.791Z,27.96
2022-07-30T10:54:47.416Z,28.16
2022-07-30T10:57:31.964Z,28.35
2022-07-30T11:00:15.558Z,27.59
2022-07-30T11:03:17.985Z,27.58
2022-07-30T11:05:48.815Z,27.83
2022-07-30T11:08:37.655Z,27.97
2022-07-30T11:12:01.034Z,28.38
2022-07-30T11:15:06.659Z,28.12
2022-07-30T11:18:12.253Z,28.46
2022-07-30T11:20:48.467Z,28.23
2022-07-30T11:23:39.581Z,28.44
2022-07-30T11:26:14.253Z,28.70
2022-07-30T11:28:44.713Z,29.38
2022-07-30T11:31:56.455Z,29.42
2022-07-30T11:34:30.708Z,28.88
2022-07-30T11:37:22.192Z,27.89
2022-07-30T11:40:13.786Z,28.47
2022-07-30T11:42:43.562Z,28.21
2022-07-30T11:45:29.495Z,27.97
2022-07-30T11:48:00.311Z,28.55
2022-07-30T11:50:32.014Z,28.46
2022-07-30T11:53:01.694Z,28.19
2022-07-30T11:55:32.642Z,28.79
2022-07-30T11:58:02.165Z,29.29
2022-07-30T12:00:36.935Z,28.39
2022-07-30T12:03:09.911Z,28.48
2022-07-30T12:05:40.466Z,27.76
2022-07-30T12:08:09.176Z,27.58
2022-07-30T12:10:59.931Z,27.67
2022-07-30T12:13:45.314Z,27.75
2022-07-30T12:16:15.914Z,28.68
2022-07-30T12:18:44.584Z,28.90
2022-07-30T12:21:16.169Z,29.12
2022-07-30T12:23:52.879Z,29.94
2022-07-30T12:26:22.532Z,30.21
2022-07-30T12:28:51.086Z,29.47
2022-07-30T12:31:19.501Z,30.11
2022-07-30T12:33:48.027Z,29.43
2022-07-30T12:36:27.723Z,28.84
2022-07-30T12:38:58.019Z,28.83
2022-07-30T12:41:41.856Z,28.74
2022-07-30T12:44:10.508Z,29.14
2022-07-30T12:46:40.972Z,28.70
2022-07-30T12:49:17.498Z,29.23
2022-07-30T12:52:00.292Z,29.20
2022-07-30T12:54:29.879Z,29.77
2022-07-30T12:57:00.662Z,30.11
2022-07-30T12:59:29.966Z,30.13
2022-07-30T13:02:00.501Z,29.52
2022-07-30T13:04:29.645Z,30.01
2022-07-30T13:07:07.044Z,28.54
2022-07-30T13:09:35.698Z,28.85
2022-07-30T13:12:04.459Z,28.57
2022-07-30T13:14:32.999Z,28.73
2022-07-30T13:17:04.001Z,29.08
2022-07-30T13:19:32.960Z,29.04
2022-07-30T13:22:01.297Z,29.26
2022-07-30T13:24:31.059Z,29.54
2022-07-30T13:26:59.451Z,29.60
2022-07-30T13:29:27.779Z,28.89
2022-07-30T13:31:56.169Z,29.44
2022-07-30T13:34:24.536Z,29.72
2022-07-30T13:36:52.909Z,29.30
2022-07-30T13:39:21.282Z,29.42
2022-07-30T13:41:51.068Z,28.57
2022-07-30T13:44:19.400Z,29.27
2022-07-30T13:46:47.814Z,28.57
2022-07-30T13:49:16.270Z,29.41
2022-07-30T13:51:44.629Z,29.41
2022-07-30T13:54:13.912Z,29.99
2022-07-30T13:56:42.478Z,29.51
2022-07-30T13:59:12.469Z,29.63
2022-07-30T14:01:40.901Z,29.48
2022-07-30T14:04:09.508Z,29.53
2022-07-30T14:06:37.875Z,29.91
2022-07-30T14:09:06.412Z,30.75
2022-07-30T14:11:35.156Z,30.58
2022-07-30T14:14:03.514Z,30.97
2022-07-30T14:16:45.105Z,30.11
2022-07-30T14:19:23.032Z,29.65
2022-07-30T14:21:53.951Z,29.41
2022-07-30T14:24:22.496Z,28.93
2022-07-30T14:26:58.880Z,28.63
2022-07-30T14:29:27.658Z,28.54
2022-07-30T14:31:57.564Z,29.57
2022-07-30T14:34:25.952Z,30.15
2022-07-30T14:36:54.303Z,30.34
2022-07-30T14:39:22.875Z,29.76
2022-07-30T14:41:52.404Z,29.75
2022-07-30T14:44:24.426Z,29.30
2022-07-30T14:46:53.185Z,29.70
2022-07-30T14:49:24.151Z,29.27
2022-07-30T14:51:52.878Z,29.27
2022-07-30T14:54:21.660Z,29.82
2022-07-30T14:56:53.603Z,29.16
2022-07-30T14:59:24.773Z,28.75
2022-07-30T15:01:53.274Z,28.86
2022-07-30T15:04:23.382Z,29.06
2022-07-30T15:06:51.858Z,28.83
2022-07-30T15:09:20.853Z,29.86
2022-07-30T15:12:23.604Z,29.74
2022-07-30T15:14:38.571Z,29.25
2022-07-30T15:17:08.564Z,29.72
2022-07-30T15:19:50.354Z,29.70
2022-07-30T15:22:19.872Z,30.24
2022-07-30T15:24:48.927Z,30.42
2022-07-30T15:27:17.623Z,29.55
2022-07-30T15:29:46.083Z,29.64
2022-07-30T15:32:14.512Z,29.53
2022-07-30T15:34:44.257Z,29.34
2022-07-30T15:37:12.612Z,29.35
2022-07-30T15:39:41.030Z,29.85
2022-07-30T15:42:09.510Z,29.76
2022-07-30T15:44:42.277Z,29.45
2022-07-30T15:47:16.762Z,29.68
2022-07-30T15:49:46.534Z,29.34
2022-07-30T15:52:14.915Z,29.24
2022-07-30T15:54:43.500Z,28.94
2022-07-30T15:57:11.849Z,28.72
2022-07-30T15:59:40.252Z,29.04
2022-07-30T16:02:08.622Z,28.45
2022-07-30T16:04:37.093Z,28.58
2022-07-30T16:07:07.939Z,29.21
2022-07-30T16:09:36.317Z,29.63
2022-07-30T16:12:05.570Z,29.71
2022-07-30T16:14:34.187Z,30.02
2022-07-30T16:17:02.871Z,29.54
2022-07-30T16:19:31.220Z,28.99
2022-07-30T16:21:59.903Z,29.01
2022-07-30T16:24:29.964Z,28.88
2022-07-30T16:26:58.458Z,28.73
2022-07-30T16:29:27.162Z,29.17
2022-07-30T16:31:55.622Z,28.98
2022-07-30T16:34:26.723Z,29.26
2022-07-30T16:36:55.743Z,28.88
2022-07-30T16:39:24.106Z,28.99
2022-07-30T16:41:53.876Z,28.96
2022-07-30T16:44:22.283Z,28.64
2022-07-30T16:46:50.769Z,28.58
2022-07-30T16:49:19.124Z,28.41
2022-07-30T16:51:47.486Z,28.06
2022-07-30T16:54:15.863Z,28.26
2022-07-30T16:56:44.228Z,28.37
2022-07-30T16:59:14.761Z,28.35
2022-07-30T17:01:43.146Z,28.29
2022-07-30T17:04:11.540Z,28.51
2022-07-30T17:06:41.105Z,28.73
2022-07-30T17:09:09.522Z,28.96
2022-07-30T17:11:46.513Z,28.75
2022-07-30T17:14:17.966Z,28.86
2022-07-30T17:16:46.351Z,28.37
2022-07-30T17:19:14.707Z,28.44
2022-07-30T17:21:43.075Z,28.29
2022-07-30T17:24:13.587Z,28.68
2022-07-30T17:26:43.906Z,28.38
2022-07-30T17:29:14.687Z,29.14
2022-07-30T17:31:45.817Z,29.04
2022-07-30T17:34:16.210Z,28.90
2022-07-30T17:36:52.649Z,28.72
2022-07-30T17:40:27.225Z,28.59
2022-07-30T17:42:11.202Z,28.30
2022-07-30T17:44:41.100Z,28.19
2022-07-30T17:47:14.515Z,28.13
2022-07-30T17:49:43.658Z,27.96
2022-07-30T17:52:12.098Z,27.69
2022-07-30T17:54:40.791Z,27.62
2022-07-30T17:57:09.194Z,27.63
2022-07-30T17:59:37.647Z,27.49
2022-07-30T18:02:06.716Z,27.46
2022-07-30T18:04:36.873Z,27.46
2022-07-30T18:07:05.770Z,27.39
2022-07-30T18:09:39.074Z,27.45
2022-07-30T18:12:09.319Z,27.79
2022-07-30T18:14:37.740Z,27.63
2022-07-30T18:17:09.103Z,27.46
2022-07-30T18:19:42.296Z,27.54
2022-07-30T18:22:10.687Z,27.36
2022-07-30T18:24:43.713Z,27.32
2022-07-30T18:27:12.851Z,27.31
2022-07-30T18:29:41.357Z,27.34
2022-07-30T18:32:09.772Z,27.26
2022-07-30T18:34:38.307Z,27.25
2022-07-30T18:37:08.090Z,27.15
2022-07-30T18:39:36.487Z,26.97
2022-07-30T18:42:05.574Z,26.74
2022-07-30T18:44:34.201Z,26.57
2022-07-30T18:47:02.610Z,26.58
2022-07-30T18:49:38.362Z,26.32
2022-07-30T18:52:08.570Z,26.15
2022-07-30T18:54:37.844Z,26.15
2022-07-30T18:57:08.165Z,25.90
2022-07-30T18:59:39.903Z,25.70
2022-07-30T19:02:08.430Z,25.24
2022-07-30T19:04:37.443Z,25.03
2022-07-30T19:07:07.387Z,24.62
2022-07-30T19:09:37.198Z,24.72
2022-07-30T19:12:06.397Z,24.93
2022-07-30T19:14:35.205Z,24.87
2022-07-30T19:17:03.637Z,24.90
2022-07-30T19:19:42.626Z,25.18
2022-07-30T19:22:10.997Z,25.00
2022-07-30T19:24:40.784Z,25.12
2022-07-30T19:27:13.970Z,24.86
2022-07-30T19:29:43.497Z,24.67
2022-07-30T19:32:12.198Z,24.69
2022-07-30T19:34:43.365Z,24.73
2022-07-30T19:37:12.273Z,24.79
2022-07-30T19:40:05.668Z,24.71
2022-07-30T19:42:30.629Z,24.97
2022-07-30T19:45:01.277Z,25.01
2022-07-30T19:47:35.346Z,24.71
2022-07-30T19:50:09.996Z,24.71
2022-07-30T19:52:38.617Z,24.69
2022-07-30T19:55:17.208Z,24.73
2022-07-30T19:57:57.458Z,25.15
2022-07-30T20:00:26.910Z,25.12
2022-07-30T20:02:55.281Z,24.80
2022-07-30T20:05:24.887Z,24.99
2022-07-30T20:07:53.449Z,25.10
2022-07-30T20:10:26.400Z,25.20
2022-07-30T20:12:58.044Z,25.09
2022-07-30T20:15:27.019Z,25.23
2022-07-30T20:17:58.542Z,25.03
2022-07-30T20:20:26.973Z,24.80
2022-07-30T20:22:55.442Z,24.92
2022-07-30T20:25:25.579Z,24.90
2022-07-30T20:27:53.969Z,24.78
2022-07-30T20:30:25.486Z,24.71
2022-07-30T20:32:54.372Z,24.71
2022-07-30T20:35:26.155Z,24.79
2022-07-30T20:37:56.418Z,24.46
2022-07-30T20:40:27.150Z,24.20
2022-07-30T20:42:55.868Z,24.45
2022-07-30T20:45:25.344Z,24.32
2022-07-30T20:48:17.466Z,24.31
2022-07-30T20:50:53.754Z,24.29
2022-07-30T20:53:24.125Z,24.42
2022-07-30T20:56:03.350Z,24.33
2022-07-30T20:58:31.725Z,24.33
2022-07-30T21:01:01.944Z,24.29
2022-07-30T21:03:33.252Z,24.25
2022-07-30T21:06:01.611Z,24.20
2022-07-30T21:08:29.982Z,24.05
2022-07-30T21:11:00.229Z,23.80
2022-07-30T21:13:30.130Z,23.80
2022-07-30T21:16:02.929Z,23.82
2022-07-30T21:18:33.053Z,23.86
2022-07-30T21:21:05.500Z,23.63
2022-07-30T21:23:34.318Z,23.50
2022-07-30T21:26:06.951Z,23.84
2022-07-30T21:28:40.387Z,23.92
2022-07-30T21:31:09.212Z,23.48
2022-07-30T21:33:37.882Z,23.58
2022-07-30T21:38:55.718Z,23.15
2022-07-30T21:41:39.954Z,23.01
2022-07-30T21:44:10.345Z,23.15
2022-07-30T21:46:40.482Z,23.02
2022-07-30T21:49:10.285Z,22.99
2022-07-30T21:51:40.014Z,23.03
2022-07-30T21:54:08.684Z,22.98
2022-07-30T21:56:41.479Z,23.04
2022-07-30T21:59:11.595Z,22.71
2022-07-30T22:01:47.689Z,22.40
2022-07-30T22:04:16.522Z,22.75
2022-07-30T22:06:45.084Z,22.78
2022-07-30T22:09:19.242Z,22.68
2022-07-30T22:12:06.349Z,22.60
2022-07-30T22:14:39.172Z,22.47
2022-07-30T22:17:22.408Z,22.47
2022-07-30T22:19:52.142Z,22.35
2022-07-30T22:22:27.150Z,22.40
2022-07-30T22:24:59.942Z,22.36
2022-07-30T22:27:39.852Z,21.87
2022-07-30T22:30:13.872Z,21.61
2022-07-30T22:32:42.936Z,21.85
2022-07-30T22:35:11.753Z,21.95
2022-07-30T22:37:40.127Z,21.96
2022-07-30T22:40:09.139Z,21.83
2022-07-30T22:42:49.808Z,21.73
2022-07-30T22:45:42.253Z,21.80
2022-07-30T22:48:10.202Z,21.97
2022-07-30T22:50:40.222Z,21.79
2022-07-30T22:54:02.489Z,21.98
2022-07-30T22:55:58.756Z,22.05
2022-07-30T22:58:28.775Z,22.05
2022-07-30T23:00:59.326Z,21.78
2022-07-30T23:03:27.715Z,21.87
2022-07-30T23:05:57.200Z,21.68
2022-07-30T23:08:29.373Z,21.28
2022-07-30T23:10:59.778Z,21.28
2022-07-30T23:12:32.449Z,23.14
2022-07-30T23:13:28.839Z,21.34
2022-07-30T23:18:26.935Z,20.76
2022-07-30T23:20:59.993Z,20.76
2022-07-30T23:23:30.972Z,21.09
2022-07-30T23:26:03.084Z,20.97
2022-07-30T23:28:31.705Z,20.72
2022-07-30T23:31:00.250Z,20.93
2022-07-30T23:33:30.754Z,20.93
2022-07-30T23:36:00.200Z,20.82
2022-07-30T23:38:28.834Z,20.57
2022-07-30T23:41:01.229Z,20.61
2022-07-30T23:43:30.005Z,20.62
2022-07-30T23:45:58.573Z,20.72
2022-07-30T23:48:27.041Z,20.64
2022-07-30T23:50:56.780Z,20.47
2022-07-30T23:53:25.443Z,20.43
2022-07-30T23:55:53.895Z,20.53
2022-07-30T23:58:22.937Z,20.32
